PWSweather.com
Personal Weather Stations
Station Observations
MENWDWX1
Menstrie, ScotlandGB

MenstrieScotlandGB

Lat: 56.148322, Lon: -3.85483

Elevation: 62

Station Type: Davis Vantage Pro 2

High Low Average
Temperature 34.0°F1.1°F 29.5°F-1.4°F 32.3°F0.2°F
Dew Point 28.5°F-1.9°F 24.7°F-4.1°F 27.2°F-2.7°F
Winds 11.5 mph WSW18.5 mph WSW Calm Calm 3.4 mph 5.5 mph
Wind Gusts 19.6 mph31.5 mph -- 5.4 mph8.7 mph
Humidity 83% 78% 81%
Pressure 29.01 in982.40 in 28.93 in979.70 in -
Precipitation 0.15 in3.80 in - -
Hour Temp Dew Point Humidity Winds Wind Gusts Pressure Precip Precip Rate Daily Precip Total
12:00 AM 33.3°F0.7°C 28.1°F-2.2°C 81% 6.9 mph WSW11.1 kmh WSW 11.5 mph18.5 kmh 28.97 in981.0 mb - 0.00 in0.0 mm 0.00 in0.0 mm
12:05 AM 33.3°F0.7°C 27.8°F-2.3°C 80% 5.8 mph W9.3 kmh W 8.1 mph13.0 kmh 28.97 in981.0 mb - 0.00 in0.0 mm 0.00 in0.0 mm
12:10 AM 33.3°F0.7°C 27.8°F-2.3°C 80% 5.8 mph W9.3 kmh W 8.1 mph13.0 kmh 28.97 in981.0 mb - 0.00 in0.0 mm 0.00 in0.0 mm
12:15 AM 33.2°F0.7°C 27.7°F-2.4°C 80% 5.8 mph W9.3 kmh W 8.1 mph13.0 kmh 28.98 in981.4 mb - 0.00 in0.0 mm 0.00 in0.0 mm
12:20 AM 33.2°F0.7°C 27.7°F-2.4°C 80% 9.2 mph W14.8 kmh W 13.8 mph22.2 kmh 28.97 in981.0 mb - 0.00 in0.0 mm 0.00 in0.0 mm
12:25 AM 33.4°F0.8°C 27.9°F-2.3°C 80% 8.1 mph W13.0 kmh W 11.5 mph18.5 kmh 28.97 in981.0 mb - 0.00 in0.0 mm 0.00 in0.0 mm
12:30 AM 33.5°F0.8°C 28.0°F-2.2°C 80% 6.9 mph W11.1 kmh W 9.2 mph14.8 kmh 28.97 in981.0 mb - 0.00 in0.0 mm 0.00 in0.0 mm
12:35 AM 33.6°F0.9°C 27.8°F-2.3°C 79% 10.4 mph W16.7 kmh W 15.0 mph24.1 kmh 28.97 in981.0 mb - 0.00 in0.0 mm 0.00 in0.0 mm
12:40 AM 33.9°F1.1°C 28.1°F-2.2°C 79% 9.2 mph WNW14.8 kmh WNW 11.5 mph18.5 kmh 28.97 in981.0 mb - 0.00 in0.0 mm 0.00 in0.0 mm
12:45 AM 34.0°F1.1°C 28.2°F-2.1°C 79% 5.8 mph W9.3 kmh W 9.2 mph14.8 kmh 28.97 in981.0 mb - 0.00 in0.0 mm 0.00 in0.0 mm
12:50 AM 34.0°F1.1°C 27.9°F-2.3°C 78% 5.8 mph W9.3 kmh W 9.2 mph14.8 kmh 28.97 in981.0 mb - 0.00 in0.0 mm 0.00 in0.0 mm
12:55 AM 34.0°F1.1°C 28.2°F-2.1°C 79% 9.2 mph W14.8 kmh W 10.4 mph16.7 kmh 28.96 in980.7 mb - 0.00 in0.0 mm 0.00 in0.0 mm
01:00 AM 33.8°F1.0°C 28.0°F-2.2°C 79% 4.6 mph W7.4 kmh W 6.9 mph11.1 kmh 28.96 in980.7 mb - 0.00 in0.0 mm 0.00 in0.0 mm
01:05 AM 33.7°F0.9°C 27.9°F-2.3°C 79% 6.9 mph W11.1 kmh W 9.2 mph14.8 kmh 28.96 in980.7 mb - 0.00 in0.0 mm 0.00 in0.0 mm
01:10 AM 33.7°F0.9°C 27.6°F-2.4°C 78% 6.9 mph WSW11.1 kmh WSW 9.2 mph14.8 kmh 28.96 in980.7 mb - 0.00 in0.0 mm 0.00 in0.0 mm
01:15 AM 33.7°F0.9°C 27.6°F-2.4°C 78% 5.8 mph WSW9.3 kmh WSW 10.4 mph16.7 kmh 28.96 in980.7 mb - 0.00 in0.0 mm 0.00 in0.0 mm
01:20 AM 33.8°F1.0°C 27.7°F-2.4°C 78% 6.9 mph W11.1 kmh W 11.5 mph18.5 kmh 28.97 in981.0 mb - 0.00 in0.0 mm 0.00 in0.0 mm
01:25 AM 33.9°F1.1°C 27.8°F-2.3°C 78% 6.9 mph W11.1 kmh W 11.5 mph18.5 kmh 28.97 in981.0 mb - 0.00 in0.0 mm 0.00 in0.0 mm
01:30 AM 33.9°F1.1°C 27.8°F-2.3°C 78% 6.9 mph WSW11.1 kmh WSW 9.2 mph14.8 kmh 28.97 in981.0 mb - 0.00 in0.0 mm 0.00 in0.0 mm
01:35 AM 33.7°F0.9°C 27.6°F-2.4°C 78% 4.6 mph W7.4 kmh W 8.1 mph13.0 kmh 28.97 in981.0 mb - 0.00 in0.0 mm 0.00 in0.0 mm
01:40 AM 33.5°F0.8°C 27.3°F-2.6°C 78% 5.8 mph WSW9.3 kmh WSW 6.9 mph11.1 kmh 28.97 in981.0 mb - 0.00 in0.0 mm 0.00 in0.0 mm
01:45 AM 33.4°F0.8°C 27.6°F-2.4°C 79% 5.8 mph WSW9.3 kmh WSW 9.2 mph14.8 kmh 28.97 in981.0 mb - 0.00 in0.0 mm 0.00 in0.0 mm
01:50 AM 33.4°F0.8°C 27.6°F-2.4°C 79% 4.6 mph WSW7.4 kmh WSW 8.1 mph13.0 kmh 28.97 in981.0 mb - 0.00 in0.0 mm 0.00 in0.0 mm
01:55 AM 33.4°F0.8°C 27.6°F-2.4°C 79% 6.9 mph W11.1 kmh W 11.5 mph18.5 kmh 28.98 in981.4 mb - 0.00 in0.0 mm 0.00 in0.0 mm
02:00 AM 33.5°F0.8°C 27.7°F-2.4°C 79% 5.8 mph W9.3 kmh W 9.2 mph14.8 kmh 28.98 in981.4 mb - 0.00 in0.0 mm 0.00 in0.0 mm
02:05 AM 33.7°F0.9°C 27.9°F-2.3°C 79% 9.2 mph W14.8 kmh W 17.3 mph27.8 kmh 28.98 in981.4 mb - 0.00 in0.0 mm 0.00 in0.0 mm
02:10 AM 34.0°F1.1°C 28.2°F-2.1°C 79% 11.5 mph WSW18.5 kmh WSW 15.0 mph24.1 kmh 28.98 in981.4 mb - 0.00 in0.0 mm 0.00 in0.0 mm
02:15 AM 33.6°F0.9°C 27.8°F-2.3°C 79% 5.8 mph WSW9.3 kmh WSW 11.5 mph18.5 kmh 28.98 in981.4 mb - 0.00 in0.0 mm 0.00 in0.0 mm
02:20 AM 33.2°F0.7°C 27.4°F-2.6°C 79% 8.1 mph WSW13.0 kmh WSW 11.5 mph18.5 kmh 28.98 in981.4 mb - 0.00 in0.0 mm 0.00 in0.0 mm
02:25 AM 33.2°F0.7°C 27.4°F-2.6°C 79% 9.2 mph WSW14.8 kmh WSW 12.7 mph20.4 kmh 28.98 in981.4 mb - 0.00 in0.0 mm 0.00 in0.0 mm
02:30 AM 33.2°F0.7°C 27.7°F-2.4°C 80% 10.4 mph WSW16.7 kmh WSW 12.7 mph20.4 kmh 28.98 in981.4 mb - 0.00 in0.0 mm 0.00 in0.0 mm
02:35 AM 33.1°F0.6°C 27.6°F-2.4°C 80% 6.9 mph W11.1 kmh W 9.2 mph14.8 kmh 28.98 in981.4 mb - 0.00 in0.0 mm 0.00 in0.0 mm
02:40 AM 33.0°F0.6°C 27.5°F-2.5°C 80% 6.9 mph W11.1 kmh W 11.5 mph18.5 kmh 28.98 in981.4 mb - 0.00 in0.0 mm 0.00 in0.0 mm
02:45 AM 33.1°F0.6°C 27.6°F-2.4°C 80% 5.8 mph W9.3 kmh W 10.4 mph16.7 kmh 28.98 in981.4 mb - 0.00 in0.0 mm 0.00 in0.0 mm
02:50 AM 33.2°F0.7°C 27.6°F-2.4°C 80% 8.1 mph W13.0 kmh W 11.5 mph18.5 kmh 28.98 in981.4 mb - 0.00 in0.0 mm 0.00 in0.0 mm
02:55 AM 33.1°F0.6°C 27.6°F-2.4°C 80% 5.8 mph WSW9.3 kmh WSW 9.2 mph14.8 kmh 28.98 in981.4 mb - 0.00 in0.0 mm 0.00 in0.0 mm
03:00 AM 33.0°F0.6°C 27.5°F-2.5°C 80% 4.6 mph W7.4 kmh W 6.9 mph11.1 kmh 28.98 in981.4 mb - 0.00 in0.0 mm 0.00 in0.0 mm
03:05 AM 32.9°F0.5°C 27.4°F-2.6°C 80% 5.8 mph W9.3 kmh W 9.2 mph14.8 kmh 28.98 in981.4 mb - 0.00 in0.0 mm 0.00 in0.0 mm
03:10 AM 32.8°F0.4°C 27.3°F-2.6°C 80% 6.9 mph WSW11.1 kmh WSW 9.2 mph14.8 kmh 28.99 in981.7 mb - 0.00 in0.0 mm 0.00 in0.0 mm
03:15 AM 32.8°F0.4°C 27.3°F-2.6°C 80% 5.8 mph W9.3 kmh W 6.9 mph11.1 kmh 28.99 in981.7 mb - 0.00 in0.0 mm 0.00 in0.0 mm
03:20 AM 32.8°F0.4°C 27.3°F-2.6°C 80% 4.6 mph W7.4 kmh W 6.9 mph11.1 kmh 28.99 in981.7 mb - 0.00 in0.0 mm 0.00 in0.0 mm
03:25 AM 32.7°F0.4°C 27.5°F-2.5°C 81% 4.6 mph WSW7.4 kmh WSW 6.9 mph11.1 kmh 28.99 in981.7 mb - 0.00 in0.0 mm 0.00 in0.0 mm
03:30 AM 32.6°F0.3°C 27.4°F-2.6°C 81% 4.6 mph WSW7.4 kmh WSW 5.8 mph9.3 kmh 28.99 in981.7 mb - 0.00 in0.0 mm 0.00 in0.0 mm
03:35 AM 32.6°F0.3°C 27.4°F-2.6°C 81% 4.6 mph WSW7.4 kmh WSW 6.9 mph11.1 kmh 28.98 in981.4 mb - 0.00 in0.0 mm 0.00 in0.0 mm
03:40 AM 32.5°F0.3°C 27.3°F-2.6°C 81% 3.5 mph WSW5.6 kmh WSW 5.8 mph9.3 kmh 28.98 in981.4 mb - 0.00 in0.0 mm 0.00 in0.0 mm
03:45 AM 32.5°F0.3°C 27.3°F-2.6°C 81% 3.5 mph WSW5.6 kmh WSW 8.1 mph13.0 kmh 28.98 in981.4 mb - 0.00 in0.0 mm 0.00 in0.0 mm
03:50 AM 32.4°F0.2°C 27.2°F-2.7°C 81% 3.5 mph W5.6 kmh W 5.8 mph9.3 kmh 28.98 in981.4 mb - 0.00 in0.0 mm 0.00 in0.0 mm
03:55 AM 32.4°F0.2°C 27.2°F-2.7°C 81% 3.5 mph WSW5.6 kmh WSW 6.9 mph11.1 kmh 28.98 in981.4 mb - 0.00 in0.0 mm 0.00 in0.0 mm
04:00 AM 32.3°F0.2°C 27.1°F-2.7°C 81% 3.5 mph W5.6 kmh W 5.8 mph9.3 kmh 28.98 in981.4 mb - 0.00 in0.0 mm 0.00 in0.0 mm
04:05 AM 32.4°F0.2°C 27.2°F-2.7°C 81% 3.5 mph W5.6 kmh W 6.9 mph11.1 kmh 28.97 in981.0 mb - 0.00 in0.0 mm 0.00 in0.0 mm
04:10 AM 32.4°F0.2°C 27.2°F-2.7°C 81% 3.5 mph W5.6 kmh W 5.8 mph9.3 kmh 28.97 in981.0 mb - 0.00 in0.0 mm 0.00 in0.0 mm
04:15 AM 32.3°F0.2°C 27.1°F-2.7°C 81% 2.3 mph W3.7 kmh W 3.5 mph5.6 kmh 28.97 in981.0 mb - 0.00 in0.0 mm 0.00 in0.0 mm
04:20 AM 32.2°F0.1°C 27.0°F-2.8°C 81% 3.5 mph W5.6 kmh W 5.8 mph9.3 kmh 28.97 in981.0 mb - 0.00 in0.0 mm 0.00 in0.0 mm
04:25 AM 32.2°F0.1°C 26.7°F-2.9°C 80% 3.5 mph WSW5.6 kmh WSW 9.2 mph14.8 kmh 28.97 in981.0 mb - 0.00 in0.0 mm 0.00 in0.0 mm
04:30 AM 32.3°F0.2°C 26.9°F-2.8°C 80% 5.8 mph WSW9.3 kmh WSW 8.1 mph13.0 kmh 28.98 in981.4 mb - 0.00 in0.0 mm 0.00 in0.0 mm
04:35 AM 32.4°F0.2°C 26.9°F-2.8°C 80% 4.6 mph WSW7.4 kmh WSW 8.1 mph13.0 kmh 28.98 in981.4 mb - 0.00 in0.0 mm 0.00 in0.0 mm
04:40 AM 32.4°F0.2°C 26.9°F-2.8°C 80% 4.6 mph WSW7.4 kmh WSW 8.1 mph13.0 kmh 28.97 in981.0 mb - 0.00 in0.0 mm 0.00 in0.0 mm
04:45 AM 32.5°F0.3°C 27.0°F-2.8°C 80% 8.1 mph W13.0 kmh W 9.2 mph14.8 kmh 28.97 in981.0 mb - 0.00 in0.0 mm 0.00 in0.0 mm
04:50 AM 32.8°F0.4°C 27.3°F-2.6°C 80% 5.8 mph WSW9.3 kmh WSW 9.2 mph14.8 kmh 28.97 in981.0 mb - 0.00 in0.0 mm 0.00 in0.0 mm
04:55 AM 33.0°F0.6°C 27.5°F-2.5°C 80% 6.9 mph WSW11.1 kmh WSW 11.5 mph18.5 kmh 28.97 in981.0 mb - 0.00 in0.0 mm 0.00 in0.0 mm
05:00 AM 33.0°F0.6°C 27.5°F-2.5°C 80% 8.1 mph WSW13.0 kmh WSW 11.5 mph18.5 kmh 28.98 in981.4 mb - 0.00 in0.0 mm 0.00 in0.0 mm
05:05 AM 33.2°F0.7°C 27.7°F-2.4°C 80% 9.2 mph W14.8 kmh W 11.5 mph18.5 kmh 28.98 in981.4 mb - 0.00 in0.0 mm 0.00 in0.0 mm
05:10 AM 33.3°F0.7°C 27.8°F-2.3°C 80% 9.2 mph WSW14.8 kmh WSW 12.7 mph20.4 kmh 28.98 in981.4 mb - 0.00 in0.0 mm 0.00 in0.0 mm
05:15 AM 33.2°F0.7°C 27.7°F-2.4°C 80% 10.4 mph WSW16.7 kmh WSW 13.8 mph22.2 kmh 28.98 in981.4 mb - 0.00 in0.0 mm 0.00 in0.0 mm
05:20 AM 33.0°F0.6°C 27.5°F-2.5°C 80% 6.9 mph W11.1 kmh W 8.1 mph13.0 kmh 28.98 in981.4 mb - 0.00 in0.0 mm 0.00 in0.0 mm
05:25 AM 32.9°F0.5°C 27.4°F-2.6°C 80% 4.6 mph W7.4 kmh W 9.2 mph14.8 kmh 28.98 in981.4 mb - 0.00 in0.0 mm 0.00 in0.0 mm
05:30 AM 32.6°F0.3°C 27.1°F-2.7°C 80% 8.1 mph WSW13.0 kmh WSW 10.4 mph16.7 kmh 28.98 in981.4 mb - 0.00 in0.0 mm 0.00 in0.0 mm
05:35 AM 32.5°F0.3°C 27.0°F-2.8°C 80% 4.6 mph WSW7.4 kmh WSW 8.1 mph13.0 kmh 28.98 in981.4 mb - 0.00 in0.0 mm 0.00 in0.0 mm
05:40 AM 32.5°F0.3°C 27.3°F-2.6°C 81% 2.3 mph WSW3.7 kmh WSW 3.5 mph5.6 kmh 28.98 in981.4 mb - 0.00 in0.0 mm 0.00 in0.0 mm
05:45 AM 32.5°F0.3°C 27.3°F-2.6°C 81% 3.5 mph WSW5.6 kmh WSW 5.8 mph9.3 kmh 28.98 in981.4 mb - 0.00 in0.0 mm 0.00 in0.0 mm
05:50 AM 32.5°F0.3°C 27.3°F-2.6°C 81% 4.6 mph W7.4 kmh W 8.1 mph13.0 kmh 28.98 in981.4 mb - 0.00 in0.0 mm 0.00 in0.0 mm
05:55 AM 32.5°F0.3°C 27.3°F-2.6°C 81% 5.8 mph W9.3 kmh W 9.2 mph14.8 kmh 28.98 in981.4 mb - 0.00 in0.0 mm 0.00 in0.0 mm
06:00 AM 32.4°F0.2°C 27.2°F-2.7°C 81% 5.8 mph W9.3 kmh W 8.1 mph13.0 kmh 28.98 in981.4 mb - 0.00 in0.0 mm 0.00 in0.0 mm
06:05 AM 32.4°F0.2°C 27.2°F-2.7°C 81% 6.9 mph WSW11.1 kmh WSW 9.2 mph14.8 kmh 28.98 in981.4 mb - 0.00 in0.0 mm 0.00 in0.0 mm
06:10 AM 32.4°F0.2°C 27.2°F-2.7°C 81% 4.6 mph W7.4 kmh W 6.9 mph11.1 kmh 28.98 in981.4 mb - 0.00 in0.0 mm 0.00 in0.0 mm
06:15 AM 32.3°F0.2°C 27.1°F-2.7°C 81% 3.5 mph W5.6 kmh W 6.9 mph11.1 kmh 28.98 in981.4 mb - 0.00 in0.0 mm 0.00 in0.0 mm
06:20 AM 32.2°F0.1°C 27.0°F-2.8°C 81% 4.6 mph W7.4 kmh W 6.9 mph11.1 kmh 28.98 in981.4 mb - 0.00 in0.0 mm 0.00 in0.0 mm
06:25 AM 32.1°F0.1°C 26.9°F-2.8°C 81% 2.3 mph W3.7 kmh W 6.9 mph11.1 kmh 28.98 in981.4 mb - 0.00 in0.0 mm 0.00 in0.0 mm
06:30 AM 32.1°F0.1°C 26.9°F-2.8°C 81% 2.3 mph WSW3.7 kmh WSW 4.6 mph7.4 kmh 28.98 in981.4 mb - 0.00 in0.0 mm 0.00 in0.0 mm
06:35 AM 32.1°F0.1°C 27.2°F-2.7°C 82% 2.3 mph WSW3.7 kmh WSW 3.5 mph5.6 kmh 28.98 in981.4 mb - 0.00 in0.0 mm 0.00 in0.0 mm
06:40 AM 32.2°F0.1°C 27.3°F-2.6°C 82% 3.5 mph WSW5.6 kmh WSW 3.5 mph5.6 kmh 28.99 in981.7 mb - 0.00 in0.0 mm 0.00 in0.0 mm
06:45 AM 32.2°F0.1°C 27.3°F-2.6°C 82% 2.3 mph WSW3.7 kmh WSW 3.5 mph5.6 kmh 28.99 in981.7 mb - 0.00 in0.0 mm 0.00 in0.0 mm
06:50 AM 32.2°F0.1°C 27.3°F-2.6°C 82% 2.3 mph WSW3.7 kmh WSW 3.5 mph5.6 kmh 28.99 in981.7 mb - 0.00 in0.0 mm 0.00 in0.0 mm
06:55 AM 32.2°F0.1°C 27.3°F-2.6°C 82% 2.3 mph WSW3.7 kmh WSW 3.5 mph5.6 kmh 28.99 in981.7 mb - 0.00 in0.0 mm 0.00 in0.0 mm
07:00 AM 32.2°F0.1°C 27.3°F-2.6°C 82% 2.3 mph WSW3.7 kmh WSW 3.5 mph5.6 kmh 28.99 in981.7 mb - 0.00 in0.0 mm 0.00 in0.0 mm
07:05 AM 32.3°F0.2°C 27.4°F-2.6°C 82% 1.2 mph WSW1.9 kmh WSW 1.2 mph1.9 kmh 28.98 in981.4 mb - 0.00 in0.0 mm 0.00 in0.0 mm
07:10 AM 32.3°F0.2°C 27.4°F-2.6°C 82% Calm Calm 1.2 mph1.9 kmh 28.98 in981.4 mb - 0.00 in0.0 mm 0.00 in0.0 mm
07:15 AM 32.3°F0.2°C 27.4°F-2.6°C 82% 2.3 mph WSW3.7 kmh WSW 3.5 mph5.6 kmh 28.98 in981.4 mb - 0.00 in0.0 mm 0.00 in0.0 mm
07:20 AM 32.2°F0.1°C 27.3°F-2.6°C 82% 1.2 mph WSW1.9 kmh WSW 1.2 mph1.9 kmh 28.98 in981.4 mb - 0.00 in0.0 mm 0.00 in0.0 mm
07:25 AM 32.1°F0.1°C 27.2°F-2.7°C 82% 1.2 mph WSW1.9 kmh WSW 3.5 mph5.6 kmh 28.98 in981.4 mb - 0.00 in0.0 mm 0.00 in0.0 mm
07:30 AM 32.1°F0.1°C 27.2°F-2.7°C 82% 2.3 mph WSW3.7 kmh WSW 2.3 mph3.7 kmh 28.98 in981.4 mb - 0.00 in0.0 mm 0.00 in0.0 mm
07:35 AM 32.1°F0.1°C 27.2°F-2.7°C 82% Calm Calm -- 28.98 in981.4 mb - 0.00 in0.0 mm 0.00 in0.0 mm
07:40 AM 32.1°F0.1°C 27.2°F-2.7°C 82% 1.2 mph WSW1.9 kmh WSW 1.2 mph1.9 kmh 28.98 in981.4 mb - 0.00 in0.0 mm 0.00 in0.0 mm
07:45 AM 32.1°F0.1°C 27.2°F-2.7°C 82% 1.2 mph WSW1.9 kmh WSW 2.3 mph3.7 kmh 28.99 in981.7 mb - 0.00 in0.0 mm 0.00 in0.0 mm
07:50 AM 32.2°F0.1°C 27.3°F-2.6°C 82% 1.2 mph WSW1.9 kmh WSW 3.5 mph5.6 kmh 28.99 in981.7 mb - 0.00 in0.0 mm 0.00 in0.0 mm
07:55 AM 32.3°F0.2°C 27.4°F-2.6°C 82% 3.5 mph WSW5.6 kmh WSW 6.9 mph11.1 kmh 29.00 in982.1 mb - 0.00 in0.0 mm 0.00 in0.0 mm
08:00 AM 32.4°F0.2°C 27.5°F-2.5°C 82% 6.9 mph WSW11.1 kmh WSW 9.2 mph14.8 kmh 29.00 in982.1 mb - 0.00 in0.0 mm 0.00 in0.0 mm
08:05 AM 32.4°F0.2°C 27.5°F-2.5°C 82% 2.3 mph W3.7 kmh W 5.8 mph9.3 kmh 29.00 in982.1 mb - 0.00 in0.0 mm 0.00 in0.0 mm
08:10 AM 32.4°F0.2°C 27.5°F-2.5°C 82% 4.6 mph WSW7.4 kmh WSW 9.2 mph14.8 kmh 29.00 in982.1 mb - 0.00 in0.0 mm 0.00 in0.0 mm
08:15 AM 32.3°F0.2°C 27.4°F-2.6°C 82% 6.9 mph WSW11.1 kmh WSW 10.4 mph16.7 kmh 28.99 in981.7 mb - 0.00 in0.0 mm 0.00 in0.0 mm
08:20 AM 32.2°F0.1°C 27.4°F-2.6°C 82% 6.9 mph WSW11.1 kmh WSW 10.4 mph16.7 kmh 28.99 in981.7 mb - 0.00 in0.0 mm 0.00 in0.0 mm
08:25 AM 32.2°F0.1°C 27.3°F-2.6°C 82% 6.9 mph W11.1 kmh W 11.5 mph18.5 kmh 28.99 in981.7 mb - 0.00 in0.0 mm 0.00 in0.0 mm
08:30 AM 32.2°F0.1°C 27.3°F-2.6°C 82% 3.5 mph W5.6 kmh W 5.8 mph9.3 kmh 28.99 in981.7 mb - 0.00 in0.0 mm 0.00 in0.0 mm
08:35 AM 32.2°F0.1°C 27.3°F-2.6°C 82% 2.3 mph W3.7 kmh W 3.5 mph5.6 kmh 28.99 in981.7 mb - 0.00 in0.0 mm 0.00 in0.0 mm
08:40 AM 32.2°F0.1°C 27.3°F-2.6°C 82% 3.5 mph W5.6 kmh W 5.8 mph9.3 kmh 28.99 in981.7 mb - 0.00 in0.0 mm 0.00 in0.0 mm
08:45 AM 32.2°F0.1°C 27.3°F-2.6°C 82% 2.3 mph W3.7 kmh W 3.5 mph5.6 kmh 28.99 in981.7 mb - 0.00 in0.0 mm 0.00 in0.0 mm
08:50 AM 32.1°F0.1°C 27.2°F-2.7°C 82% 2.3 mph W3.7 kmh W 3.5 mph5.6 kmh 28.99 in981.7 mb - 0.00 in0.0 mm 0.00 in0.0 mm
08:55 AM 32.2°F0.1°C 27.3°F-2.6°C 82% 1.2 mph W1.9 kmh W 2.3 mph3.7 kmh 28.99 in981.7 mb - 0.00 in0.0 mm 0.00 in0.0 mm
09:00 AM 32.2°F0.1°C 27.3°F-2.6°C 82% 2.3 mph W3.7 kmh W 3.5 mph5.6 kmh 28.99 in981.7 mb - 0.00 in0.0 mm 0.00 in0.0 mm
09:05 AM 32.2°F0.1°C 27.4°F-2.6°C 82% 1.2 mph NW1.9 kmh NW 1.2 mph1.9 kmh 28.99 in981.7 mb - 0.00 in0.0 mm 0.00 in0.0 mm
09:10 AM 32.3°F0.2°C 27.4°F-2.6°C 82% Calm Calm -- 28.99 in981.7 mb - 0.00 in0.0 mm 0.00 in0.0 mm
09:15 AM 32.3°F0.2°C 27.4°F-2.6°C 82% 1.2 mph WNW1.9 kmh WNW 3.5 mph5.6 kmh 28.99 in981.7 mb - 0.00 in0.0 mm 0.00 in0.0 mm
09:20 AM 32.4°F0.2°C 27.5°F-2.5°C 82% 3.5 mph W5.6 kmh W 8.1 mph13.0 kmh 28.99 in981.7 mb - 0.00 in0.0 mm 0.00 in0.0 mm
09:25 AM 32.5°F0.3°C 27.6°F-2.4°C 82% 2.3 mph W3.7 kmh W 3.5 mph5.6 kmh 28.99 in981.7 mb - 0.00 in0.0 mm 0.00 in0.0 mm
09:30 AM 32.5°F0.3°C 27.6°F-2.4°C 82% 2.3 mph W3.7 kmh W 4.6 mph7.4 kmh 28.99 in981.7 mb - 0.00 in0.0 mm 0.00 in0.0 mm
09:35 AM 32.5°F0.3°C 27.6°F-2.4°C 82% 2.3 mph WSW3.7 kmh WSW 4.6 mph7.4 kmh 28.99 in981.7 mb - 0.00 in0.0 mm 0.00 in0.0 mm
09:40 AM 32.5°F0.3°C 27.6°F-2.4°C 82% 3.5 mph W5.6 kmh W 5.8 mph9.3 kmh 28.99 in981.7 mb - 0.00 in0.0 mm 0.00 in0.0 mm
09:45 AM 32.6°F0.3°C 27.7°F-2.4°C 82% 3.5 mph WSW5.6 kmh WSW 4.6 mph7.4 kmh 28.99 in981.7 mb - 0.00 in0.0 mm 0.00 in0.0 mm
09:50 AM 32.6°F0.3°C 27.7°F-2.4°C 82% 2.3 mph WSW3.7 kmh WSW 3.5 mph5.6 kmh 28.99 in981.7 mb - 0.00 in0.0 mm 0.00 in0.0 mm
09:55 AM 32.7°F0.4°C 27.8°F-2.3°C 82% 1.2 mph WSW1.9 kmh WSW 1.2 mph1.9 kmh 28.98 in981.4 mb - 0.00 in0.0 mm 0.00 in0.0 mm
10:00 AM 32.7°F0.4°C 27.9°F-2.3°C 82% Calm Calm 1.2 mph1.9 kmh 28.98 in981.4 mb - 0.00 in0.0 mm 0.00 in0.0 mm
10:05 AM 32.7°F0.4°C 27.8°F-2.3°C 82% Calm Calm 2.3 mph3.7 kmh 28.98 in981.4 mb - 0.00 in0.0 mm 0.00 in0.0 mm
10:10 AM 32.6°F0.3°C 27.7°F-2.4°C 82% Calm Calm -- 28.98 in981.4 mb - 0.01 in0.3 mm 0.01 in0.3 mm
10:15 AM 32.6°F0.3°C 27.7°F-2.4°C 82% Calm Calm -- 28.98 in981.4 mb - 0.00 in0.0 mm 0.01 in0.3 mm
10:20 AM 32.6°F0.3°C 27.7°F-2.4°C 82% 1.2 mph WSW1.9 kmh WSW 1.2 mph1.9 kmh 28.98 in981.4 mb - 0.00 in0.0 mm 0.01 in0.3 mm
10:25 AM 32.7°F0.4°C 27.8°F-2.3°C 82% 2.3 mph NW3.7 kmh NW 3.5 mph5.6 kmh 28.98 in981.4 mb - 0.00 in0.0 mm 0.01 in0.3 mm
10:30 AM 32.9°F0.5°C 28.0°F-2.2°C 82% Calm Calm -- 28.98 in981.4 mb - 0.00 in0.0 mm 0.01 in0.3 mm
10:35 AM 33.1°F0.6°C 28.2°F-2.1°C 82% Calm Calm 1.2 mph1.9 kmh 28.99 in981.7 mb - 0.00 in0.0 mm 0.01 in0.3 mm
10:40 AM 33.2°F0.7°C 28.3°F-2.1°C 82% 1.2 mph NNW1.9 kmh NNW 2.3 mph3.7 kmh 28.99 in981.7 mb - 0.00 in0.0 mm 0.01 in0.3 mm
10:45 AM 33.1°F0.6°C 28.2°F-2.1°C 82% 6.9 mph WSW11.1 kmh WSW 10.4 mph16.7 kmh 28.99 in981.7 mb - 0.00 in0.0 mm 0.01 in0.3 mm
10:50 AM 32.9°F0.5°C 28.0°F-2.2°C 82% 9.2 mph W14.8 kmh W 13.8 mph22.2 kmh 28.99 in981.7 mb - 0.01 in0.3 mm 0.02 in0.5 mm
10:55 AM 32.9°F0.5°C 27.7°F-2.4°C 81% 6.9 mph W11.1 kmh W 10.4 mph16.7 kmh 28.99 in981.7 mb - 0.00 in0.0 mm 0.02 in0.5 mm
11:00 AM 33.0°F0.6°C 27.8°F-2.3°C 81% 4.6 mph W7.4 kmh W 6.9 mph11.1 kmh 28.98 in981.4 mb - 0.00 in0.0 mm 0.02 in0.5 mm
11:05 AM 33.0°F0.6°C 27.8°F-2.3°C 81% 3.5 mph WSW5.6 kmh WSW 4.6 mph7.4 kmh 28.98 in981.4 mb - 0.01 in0.3 mm 0.03 in0.8 mm
11:10 AM 33.0°F0.6°C 27.8°F-2.3°C 81% 2.3 mph W3.7 kmh W 3.5 mph5.6 kmh 28.98 in981.4 mb - 0.00 in0.0 mm 0.03 in0.8 mm
11:15 AM 33.0°F0.6°C 27.8°F-2.3°C 81% 1.2 mph W1.9 kmh W 2.3 mph3.7 kmh 28.97 in981.0 mb - 0.00 in0.0 mm 0.03 in0.8 mm
11:20 AM 33.0°F0.6°C 27.8°F-2.3°C 81% 2.3 mph W3.7 kmh W 3.5 mph5.6 kmh 28.98 in981.4 mb - 0.00 in0.0 mm 0.03 in0.8 mm
11:25 AM 33.1°F0.6°C 27.9°F-2.3°C 81% 2.3 mph W3.7 kmh W 3.5 mph5.6 kmh 28.98 in981.4 mb - 0.00 in0.0 mm 0.03 in0.8 mm
11:30 AM 33.3°F0.7°C 28.1°F-2.2°C 81% 1.2 mph WSW1.9 kmh WSW 3.5 mph5.6 kmh 28.98 in981.4 mb - 0.00 in0.0 mm 0.03 in0.8 mm
11:35 AM 33.6°F0.9°C 28.4°F-2.0°C 81% 1.2 mph WSW1.9 kmh WSW 2.3 mph3.7 kmh 28.98 in981.4 mb - 0.01 in0.3 mm 0.03 in0.8 mm
11:40 AM 33.7°F0.9°C 28.5°F-1.9°C 81% Calm Calm -- 28.98 in981.4 mb - 0.01 in0.3 mm 0.03 in0.8 mm
11:45 AM 33.7°F0.9°C 28.5°F-1.9°C 81% 3.5 mph SW5.6 kmh SW 11.5 mph18.5 kmh 28.98 in981.4 mb - 0.00 in0.0 mm 0.03 in0.8 mm
11:50 AM 33.1°F0.6°C 27.9°F-2.3°C 81% 9.2 mph WSW14.8 kmh WSW 12.7 mph20.4 kmh 28.98 in981.4 mb - 0.01 in0.3 mm 0.04 in1.0 mm
11:55 AM 32.6°F0.3°C 27.4°F-2.6°C 81% 6.9 mph WSW11.1 kmh WSW 9.2 mph14.8 kmh 28.98 in981.4 mb - 0.00 in0.0 mm 0.04 in1.0 mm
12:00 PM 32.4°F0.2°C 27.2°F-2.7°C 81% 4.6 mph W7.4 kmh W 6.9 mph11.1 kmh 28.98 in981.4 mb - 0.00 in0.0 mm 0.04 in1.0 mm
12:05 PM 32.4°F0.2°C 27.2°F-2.7°C 81% 2.3 mph WNW3.7 kmh WNW 5.8 mph9.3 kmh 28.97 in981.0 mb - 0.00 in0.0 mm 0.04 in1.0 mm
12:10 PM 32.4°F0.2°C 27.2°F-2.7°C 81% 3.5 mph W5.6 kmh W 3.5 mph5.6 kmh 28.97 in981.0 mb - 0.00 in0.0 mm 0.04 in1.0 mm
12:15 PM 32.5°F0.3°C 27.3°F-2.6°C 81% 3.5 mph W5.6 kmh W 6.9 mph11.1 kmh 28.97 in981.0 mb - 0.00 in0.0 mm 0.04 in1.0 mm
12:20 PM 32.6°F0.3°C 27.7°F-2.4°C 82% 2.3 mph W3.7 kmh W 3.5 mph5.6 kmh 28.97 in981.0 mb - 0.00 in0.0 mm 0.04 in1.0 mm
12:25 PM 32.7°F0.4°C 27.8°F-2.3°C 82% 2.3 mph WNW3.7 kmh WNW 3.5 mph5.6 kmh 28.96 in980.7 mb - 0.00 in0.0 mm 0.04 in1.0 mm
12:30 PM 32.9°F0.5°C 28.0°F-2.2°C 82% 2.3 mph WNW3.7 kmh WNW 3.5 mph5.6 kmh 28.96 in980.7 mb - 0.00 in0.0 mm 0.04 in1.0 mm
12:35 PM 33.0°F0.6°C 28.1°F-2.2°C 82% 3.5 mph W5.6 kmh W 3.5 mph5.6 kmh 28.97 in981.0 mb - 0.01 in0.3 mm 0.05 in1.3 mm
12:40 PM 33.0°F0.6°C 28.1°F-2.2°C 82% 2.3 mph WSW3.7 kmh WSW 8.1 mph13.0 kmh 28.97 in981.0 mb - 0.00 in0.0 mm 0.05 in1.3 mm
12:45 PM 33.0°F0.6°C 28.1°F-2.2°C 82% 8.1 mph WSW13.0 kmh WSW 12.7 mph20.4 kmh 28.97 in981.0 mb - 0.00 in0.0 mm 0.05 in1.3 mm
12:50 PM 33.0°F0.6°C 27.8°F-2.3°C 81% 8.1 mph W13.0 kmh W 11.5 mph18.5 kmh 28.97 in981.0 mb - 0.01 in0.3 mm 0.06 in1.5 mm
12:55 PM 33.0°F0.6°C 27.8°F-2.3°C 81% 6.9 mph W11.1 kmh W 11.5 mph18.5 kmh 28.96 in980.7 mb - 0.00 in0.0 mm 0.06 in1.5 mm
01:00 PM 33.1°F0.6°C 27.9°F-2.3°C 81% 8.1 mph WSW13.0 kmh WSW 11.5 mph18.5 kmh 28.97 in981.0 mb - 0.00 in0.0 mm 0.06 in1.5 mm
01:05 PM 33.1°F0.6°C 27.6°F-2.4°C 80% 6.9 mph SW11.1 kmh SW 8.1 mph13.0 kmh 28.97 in981.0 mb - 0.00 in0.0 mm 0.06 in1.5 mm
01:10 PM 33.0°F0.6°C 27.5°F-2.5°C 80% 10.4 mph WSW16.7 kmh WSW 19.6 mph31.5 kmh 28.96 in980.7 mb - 0.00 in0.0 mm 0.06 in1.5 mm
01:15 PM 32.8°F0.4°C 27.3°F-2.6°C 80% 6.9 mph W11.1 kmh W 13.8 mph22.2 kmh 28.96 in980.7 mb - 0.00 in0.0 mm 0.06 in1.5 mm
01:20 PM 32.7°F0.4°C 27.3°F-2.6°C 80% 5.8 mph W9.3 kmh W 9.2 mph14.8 kmh 28.95 in980.4 mb - 0.00 in0.0 mm 0.06 in1.5 mm
01:25 PM 32.8°F0.4°C 27.3°F-2.6°C 80% 3.5 mph W5.6 kmh W 6.9 mph11.1 kmh 28.96 in980.7 mb - 0.01 in0.3 mm 0.07 in1.8 mm
01:30 PM 32.8°F0.4°C 27.3°F-2.6°C 80% 4.6 mph W7.4 kmh W 8.1 mph13.0 kmh 28.96 in980.7 mb - 0.00 in0.0 mm 0.07 in1.8 mm
01:35 PM 32.8°F0.4°C 27.3°F-2.6°C 80% 5.8 mph W9.3 kmh W 9.2 mph14.8 kmh 28.96 in980.7 mb - 0.00 in0.0 mm 0.07 in1.8 mm
01:40 PM 32.8°F0.4°C 27.3°F-2.6°C 80% 1.2 mph W1.9 kmh W 3.5 mph5.6 kmh 28.94 in980.0 mb - 0.00 in0.0 mm 0.07 in1.8 mm
01:45 PM 32.8°F0.4°C 27.3°F-2.6°C 80% 2.3 mph W3.7 kmh W 3.5 mph5.6 kmh 28.95 in980.4 mb - 0.00 in0.0 mm 0.07 in1.8 mm
01:50 PM 32.7°F0.4°C 27.3°F-2.6°C 80% 1.2 mph W1.9 kmh W 3.5 mph5.6 kmh 28.95 in980.4 mb - 0.01 in0.3 mm 0.07 in1.8 mm
01:55 PM 32.6°F0.3°C 27.1°F-2.7°C 80% 1.2 mph WNW1.9 kmh WNW 3.5 mph5.6 kmh 28.95 in980.4 mb - 0.00 in0.0 mm 0.07 in1.8 mm
02:00 PM 32.6°F0.3°C 27.1°F-2.7°C 80% 2.3 mph WNW3.7 kmh WNW 3.5 mph5.6 kmh 28.95 in980.4 mb - 0.00 in0.0 mm 0.07 in1.8 mm
02:05 PM 32.7°F0.4°C 27.2°F-2.7°C 80% Calm Calm -- 28.95 in980.4 mb - 0.00 in0.0 mm 0.07 in1.8 mm
02:10 PM 32.9°F0.5°C 27.7°F-2.4°C 81% Calm Calm -- 28.95 in980.4 mb - 0.00 in0.0 mm 0.07 in1.8 mm
02:15 PM 33.0°F0.6°C 27.8°F-2.3°C 81% Calm Calm -- 28.95 in980.4 mb - 0.00 in0.0 mm 0.07 in1.8 mm
02:20 PM 33.1°F0.6°C 27.9°F-2.3°C 81% Calm Calm -- 28.95 in980.4 mb - 0.00 in0.0 mm 0.07 in1.8 mm
02:25 PM 33.2°F0.7°C 28.0°F-2.2°C 81% Calm Calm -- 28.95 in980.4 mb - 0.00 in0.0 mm 0.07 in1.8 mm
02:30 PM 33.2°F0.7°C 28.0°F-2.2°C 81% Calm Calm -- 28.95 in980.4 mb - 0.01 in0.3 mm 0.08 in2.0 mm
02:35 PM 33.2°F0.7°C 28.0°F-2.2°C 81% Calm Calm -- 28.95 in980.4 mb - 0.00 in0.0 mm 0.08 in2.0 mm
02:40 PM 33.2°F0.7°C 28.0°F-2.2°C 81% Calm Calm -- 28.94 in980.0 mb - 0.00 in0.0 mm 0.08 in2.0 mm
02:45 PM 33.2°F0.7°C 27.7°F-2.4°C 80% Calm Calm -- 28.95 in980.4 mb - 0.00 in0.0 mm 0.08 in2.0 mm
02:50 PM 33.2°F0.7°C 28.0°F-2.2°C 81% Calm Calm -- 28.95 in980.4 mb - 0.01 in0.3 mm 0.09 in2.3 mm
02:55 PM 33.2°F0.7°C 27.7°F-2.4°C 80% 2.3 mph WNW3.7 kmh WNW 3.5 mph5.6 kmh 28.95 in980.4 mb - 0.00 in0.0 mm 0.09 in2.3 mm
03:00 PM 33.2°F0.7°C 27.7°F-2.4°C 80% Calm Calm 1.2 mph1.9 kmh 28.94 in980.0 mb - 0.00 in0.0 mm 0.09 in2.3 mm
03:05 PM 33.1°F0.6°C 27.6°F-2.4°C 80% 1.2 mph WSW1.9 kmh WSW 2.3 mph3.7 kmh 28.94 in980.0 mb - 0.00 in0.0 mm 0.09 in2.3 mm
03:10 PM 33.1°F0.6°C 27.6°F-2.4°C 80% 1.2 mph WSW1.9 kmh WSW 3.5 mph5.6 kmh 28.93 in979.7 mb - 0.00 in0.0 mm 0.09 in2.3 mm
03:15 PM 33.2°F0.7°C 27.7°F-2.4°C 80% 1.2 mph WSW1.9 kmh WSW 2.3 mph3.7 kmh 28.93 in979.7 mb - 0.00 in0.0 mm 0.09 in2.3 mm
03:20 PM 33.3°F0.7°C 27.8°F-2.3°C 80% 3.5 mph WSW5.6 kmh WSW 4.6 mph7.4 kmh 28.94 in980.0 mb - 0.00 in0.0 mm 0.09 in2.3 mm
03:25 PM 33.3°F0.7°C 27.8°F-2.3°C 80% 3.5 mph WSW5.6 kmh WSW 6.9 mph11.1 kmh 28.94 in980.0 mb - 0.00 in0.0 mm 0.09 in2.3 mm
03:30 PM 33.3°F0.7°C 27.5°F-2.5°C 79% 2.3 mph W3.7 kmh W 3.5 mph5.6 kmh 28.94 in980.0 mb - 0.00 in0.0 mm 0.09 in2.3 mm
03:35 PM 33.2°F0.7°C 27.4°F-2.6°C 79% 2.3 mph NW3.7 kmh NW 6.9 mph11.1 kmh 28.94 in980.0 mb - 0.01 in0.3 mm 0.10 in2.5 mm
03:40 PM 33.2°F0.7°C 27.4°F-2.6°C 79% 3.5 mph WNW5.6 kmh WNW 5.8 mph9.3 kmh 28.94 in980.0 mb - 0.01 in0.3 mm 0.10 in2.5 mm
03:45 PM 33.1°F0.6°C 27.3°F-2.6°C 79% 2.3 mph W3.7 kmh W 3.5 mph5.6 kmh 28.94 in980.0 mb - 0.00 in0.0 mm 0.10 in2.5 mm
03:50 PM 33.0°F0.6°C 27.2°F-2.7°C 79% 3.5 mph W5.6 kmh W 3.5 mph5.6 kmh 28.95 in980.4 mb - 0.00 in0.0 mm 0.10 in2.5 mm
03:55 PM 33.0°F0.6°C 27.2°F-2.7°C 79% 6.9 mph W11.1 kmh W 12.7 mph20.4 kmh 28.94 in980.0 mb - 0.00 in0.0 mm 0.10 in2.5 mm
04:00 PM 32.8°F0.4°C 27.1°F-2.7°C 79% 3.5 mph WSW5.6 kmh WSW 8.1 mph13.0 kmh 28.95 in980.4 mb - 0.00 in0.0 mm 0.10 in2.5 mm
04:05 PM 32.7°F0.4°C 26.9°F-2.8°C 79% 4.6 mph WSW7.4 kmh WSW 6.9 mph11.1 kmh 28.94 in980.0 mb - 0.00 in0.0 mm 0.10 in2.5 mm
04:10 PM 32.6°F0.3°C 26.8°F-2.9°C 79% 3.5 mph W5.6 kmh W 3.5 mph5.6 kmh 28.94 in980.0 mb - 0.00 in0.0 mm 0.10 in2.5 mm
04:15 PM 32.5°F0.3°C 26.7°F-2.9°C 79% 3.5 mph W5.6 kmh W 8.1 mph13.0 kmh 28.95 in980.4 mb - 0.00 in0.0 mm 0.10 in2.5 mm
04:20 PM 32.4°F0.2°C 26.6°F-3.0°C 79% 2.3 mph WNW3.7 kmh WNW 3.5 mph5.6 kmh 28.95 in980.4 mb - 0.00 in0.0 mm 0.10 in2.5 mm
04:25 PM 32.4°F0.2°C 26.9°F-2.8°C 80% 4.6 mph WSW7.4 kmh WSW 11.5 mph18.5 kmh 28.94 in980.0 mb - 0.00 in0.0 mm 0.10 in2.5 mm
04:30 PM 32.5°F0.3°C 26.7°F-2.9°C 79% 3.5 mph WNW5.6 kmh WNW 5.8 mph9.3 kmh 28.95 in980.4 mb - 0.00 in0.0 mm 0.10 in2.5 mm
04:35 PM 32.5°F0.3°C 27.0°F-2.8°C 80% Calm Calm 2.3 mph3.7 kmh 28.95 in980.4 mb - 0.01 in0.3 mm 0.11 in2.8 mm
04:40 PM 32.5°F0.3°C 27.0°F-2.8°C 80% 1.2 mph NW1.9 kmh NW 2.3 mph3.7 kmh 28.95 in980.4 mb - 0.00 in0.0 mm 0.11 in2.8 mm
04:45 PM 32.5°F0.3°C 27.0°F-2.8°C 80% Calm Calm -- 28.94 in980.0 mb - 0.00 in0.0 mm 0.11 in2.8 mm
04:50 PM 32.6°F0.3°C 26.8°F-2.9°C 79% Calm Calm -- 28.94 in980.0 mb - 0.00 in0.0 mm 0.11 in2.8 mm
04:55 PM 32.6°F0.3°C 27.1°F-2.7°C 80% 4.6 mph SW7.4 kmh SW 6.9 mph11.1 kmh 28.94 in980.0 mb - 0.00 in0.0 mm 0.11 in2.8 mm
05:00 PM 32.6°F0.3°C 27.1°F-2.7°C 80% 6.9 mph WSW11.1 kmh WSW 9.2 mph14.8 kmh 28.94 in980.0 mb - 0.00 in0.0 mm 0.11 in2.8 mm
05:05 PM 32.4°F0.2°C 26.9°F-2.8°C 80% 5.8 mph WSW9.3 kmh WSW 10.4 mph16.7 kmh 28.94 in980.0 mb - 0.00 in0.0 mm 0.11 in2.8 mm
05:10 PM 32.3°F0.2°C 26.8°F-2.9°C 80% 6.9 mph WSW11.1 kmh WSW 10.4 mph16.7 kmh 28.94 in980.0 mb - 0.00 in0.0 mm 0.11 in2.8 mm
05:15 PM 32.0°F0.0°C 26.6°F-3.0°C 80% 9.2 mph WSW14.8 kmh WSW 11.5 mph18.5 kmh 28.93 in979.7 mb - 0.00 in0.0 mm 0.11 in2.8 mm
05:20 PM 31.9°F-0.1°C 26.8°F-2.9°C 81% 8.1 mph WSW13.0 kmh WSW 10.4 mph16.7 kmh 28.94 in980.0 mb - 0.00 in0.0 mm 0.11 in2.8 mm
05:25 PM 31.9°F-0.1°C 26.7°F-2.9°C 81% 4.6 mph W7.4 kmh W 6.9 mph11.1 kmh 28.93 in979.7 mb - 0.00 in0.0 mm 0.11 in2.8 mm
05:30 PM 31.9°F-0.1°C 26.7°F-2.9°C 81% 3.5 mph WNW5.6 kmh WNW 3.5 mph5.6 kmh 28.93 in979.7 mb - 0.00 in0.0 mm 0.11 in2.8 mm
05:35 PM 31.9°F-0.1°C 26.7°F-2.9°C 81% 3.5 mph NW5.6 kmh NW 3.5 mph5.6 kmh 28.93 in979.7 mb - 0.00 in0.0 mm 0.11 in2.8 mm
05:40 PM 31.8°F-0.1°C 26.6°F-3.0°C 81% 2.3 mph NW3.7 kmh NW 3.5 mph5.6 kmh 28.94 in980.0 mb - 0.00 in0.0 mm 0.11 in2.8 mm
05:45 PM 31.9°F-0.1°C 26.7°F-2.9°C 81% 3.5 mph W5.6 kmh W 5.8 mph9.3 kmh 28.94 in980.0 mb - 0.00 in0.0 mm 0.11 in2.8 mm
05:50 PM 31.9°F-0.1°C 26.7°F-2.9°C 81% 3.5 mph WNW5.6 kmh WNW 4.6 mph7.4 kmh 28.94 in980.0 mb - 0.00 in0.0 mm 0.11 in2.8 mm
05:55 PM 31.9°F-0.1°C 27.0°F-2.8°C 82% 2.3 mph WSW3.7 kmh WSW 3.5 mph5.6 kmh 28.94 in980.0 mb - 0.00 in0.0 mm 0.11 in2.8 mm
06:00 PM 31.9°F-0.1°C 27.0°F-2.8°C 82% 3.5 mph WSW5.6 kmh WSW 6.9 mph11.1 kmh 28.94 in980.0 mb - 0.00 in0.0 mm 0.11 in2.8 mm
06:05 PM 31.9°F-0.1°C 27.0°F-2.8°C 82% 4.6 mph WSW7.4 kmh WSW 4.6 mph7.4 kmh 28.94 in980.0 mb - 0.00 in0.0 mm 0.11 in2.8 mm
06:10 PM 31.8°F-0.1°C 27.0°F-2.8°C 82% 4.6 mph SW7.4 kmh SW 9.2 mph14.8 kmh 28.94 in980.0 mb - 0.00 in0.0 mm 0.11 in2.8 mm
06:15 PM 31.8°F-0.1°C 26.9°F-2.8°C 82% 6.9 mph WSW11.1 kmh WSW 10.4 mph16.7 kmh 28.94 in980.0 mb - 0.00 in0.0 mm 0.11 in2.8 mm
06:20 PM 31.7°F-0.2°C 26.8°F-2.9°C 82% 3.5 mph WSW5.6 kmh WSW 5.8 mph9.3 kmh 28.94 in980.0 mb - 0.00 in0.0 mm 0.11 in2.8 mm
06:25 PM 31.7°F-0.2°C 26.8°F-2.9°C 82% 4.6 mph WNW7.4 kmh WNW 6.9 mph11.1 kmh 28.94 in980.0 mb - 0.00 in0.0 mm 0.11 in2.8 mm
06:30 PM 31.6°F-0.2°C 26.8°F-2.9°C 82% 2.3 mph WNW3.7 kmh WNW 5.8 mph9.3 kmh 28.93 in979.7 mb - 0.00 in0.0 mm 0.11 in2.8 mm
06:35 PM 31.6°F-0.2°C 26.7°F-2.9°C 82% 3.5 mph W5.6 kmh W 6.9 mph11.1 kmh 28.94 in980.0 mb - 0.00 in0.0 mm 0.11 in2.8 mm
06:40 PM 31.7°F-0.2°C 26.8°F-2.9°C 82% 3.5 mph W5.6 kmh W 5.8 mph9.3 kmh 28.94 in980.0 mb - 0.00 in0.0 mm 0.11 in2.8 mm
06:45 PM 31.8°F-0.1°C 26.9°F-2.8°C 82% 2.3 mph W3.7 kmh W 3.5 mph5.6 kmh 28.94 in980.0 mb - 0.00 in0.0 mm 0.11 in2.8 mm
06:50 PM 31.9°F-0.1°C 27.0°F-2.8°C 82% 2.3 mph W3.7 kmh W 3.5 mph5.6 kmh 28.94 in980.0 mb - 0.00 in0.0 mm 0.11 in2.8 mm
06:55 PM 31.9°F-0.1°C 27.0°F-2.8°C 82% 3.5 mph WSW5.6 kmh WSW 5.8 mph9.3 kmh 28.94 in980.0 mb - 0.00 in0.0 mm 0.11 in2.8 mm
07:00 PM 31.9°F-0.1°C 27.0°F-2.8°C 82% 2.3 mph WSW3.7 kmh WSW 3.5 mph5.6 kmh 28.94 in980.0 mb - 0.00 in0.0 mm 0.11 in2.8 mm
07:05 PM 31.9°F-0.1°C 27.0°F-2.8°C 82% 2.3 mph W3.7 kmh W 3.5 mph5.6 kmh 28.94 in980.0 mb - 0.00 in0.0 mm 0.11 in2.8 mm
07:10 PM 31.9°F-0.1°C 27.0°F-2.8°C 82% 3.5 mph W5.6 kmh W 2.3 mph3.7 kmh 28.94 in980.0 mb - 0.00 in0.0 mm 0.11 in2.8 mm
07:15 PM 31.9°F-0.1°C 27.0°F-2.8°C 82% 3.5 mph W5.6 kmh W 10.4 mph16.7 kmh 28.94 in980.0 mb - 0.00 in0.0 mm 0.11 in2.8 mm
07:20 PM 31.9°F-0.1°C 27.0°F-2.8°C 82% 6.9 mph W11.1 kmh W 11.5 mph18.5 kmh 28.95 in980.4 mb - 0.00 in0.0 mm 0.11 in2.8 mm
07:25 PM 31.8°F-0.1°C 26.9°F-2.8°C 82% 6.9 mph WSW11.1 kmh WSW 11.5 mph18.5 kmh 28.95 in980.4 mb - 0.00 in0.0 mm 0.11 in2.8 mm
07:30 PM 31.7°F-0.2°C 26.8°F-2.9°C 82% 5.8 mph WSW9.3 kmh WSW 8.1 mph13.0 kmh 28.95 in980.4 mb - 0.00 in0.0 mm 0.11 in2.8 mm
07:35 PM 31.6°F-0.2°C 26.7°F-2.9°C 82% 3.5 mph W5.6 kmh W 3.5 mph5.6 kmh 28.94 in980.0 mb - 0.00 in0.0 mm 0.11 in2.8 mm
07:40 PM 31.5°F-0.3°C 26.6°F-3.0°C 82% 2.3 mph WSW3.7 kmh WSW 3.5 mph5.6 kmh 28.94 in980.0 mb - 0.00 in0.0 mm 0.11 in2.8 mm
07:45 PM 31.5°F-0.3°C 26.6°F-3.0°C 82% 3.5 mph WSW5.6 kmh WSW 4.6 mph7.4 kmh 28.94 in980.0 mb - 0.00 in0.0 mm 0.11 in2.8 mm
07:50 PM 31.4°F-0.3°C 26.6°F-3.0°C 82% 2.3 mph W3.7 kmh W 5.8 mph9.3 kmh 28.95 in980.4 mb - 0.00 in0.0 mm 0.11 in2.8 mm
07:55 PM 31.4°F-0.3°C 26.5°F-3.1°C 82% 1.2 mph NW1.9 kmh NW 2.3 mph3.7 kmh 28.94 in980.0 mb - 0.00 in0.0 mm 0.11 in2.8 mm
08:00 PM 31.4°F-0.3°C 26.5°F-3.1°C 82% 2.3 mph SW3.7 kmh SW 5.8 mph9.3 kmh 28.94 in980.0 mb - 0.00 in0.0 mm 0.11 in2.8 mm
08:05 PM 31.2°F-0.4°C 26.4°F-3.1°C 82% 1.2 mph W1.9 kmh W 2.3 mph3.7 kmh 28.94 in980.0 mb - 0.00 in0.0 mm 0.11 in2.8 mm
08:10 PM 31.1°F-0.5°C 26.2°F-3.2°C 82% Calm Calm -- 28.94 in980.0 mb - 0.00 in0.0 mm 0.11 in2.8 mm
08:15 PM 31.0°F-0.6°C 26.1°F-3.3°C 82% Calm Calm -- 28.94 in980.0 mb - 0.00 in0.0 mm 0.11 in2.8 mm
08:20 PM 30.8°F-0.7°C 25.9°F-3.4°C 82% Calm Calm -- 28.94 in980.0 mb - 0.00 in0.0 mm 0.11 in2.8 mm
08:25 PM 30.6°F-0.8°C 25.8°F-3.4°C 82% Calm Calm -- 28.94 in980.0 mb - 0.00 in0.0 mm 0.11 in2.8 mm
08:30 PM 30.3°F-0.9°C 25.5°F-3.6°C 82% Calm Calm -- 28.94 in980.0 mb - 0.00 in0.0 mm 0.11 in2.8 mm
08:35 PM 30.2°F-1.0°C 25.4°F-3.7°C 82% Calm Calm -- 28.94 in980.0 mb - 0.00 in0.0 mm 0.11 in2.8 mm
08:40 PM 29.9°F-1.2°C 25.1°F-3.8°C 82% Calm Calm -- 28.95 in980.4 mb - 0.00 in0.0 mm 0.11 in2.8 mm
08:45 PM 29.7°F-1.3°C 24.9°F-3.9°C 82% Calm Calm -- 28.95 in980.4 mb - 0.00 in0.0 mm 0.11 in2.8 mm
08:50 PM 29.5°F-1.4°C 24.7°F-4.1°C 82% Calm Calm -- 28.95 in980.4 mb - 0.00 in0.0 mm 0.11 in2.8 mm
08:55 PM 29.6°F-1.3°C 24.8°F-4.0°C 82% Calm Calm -- 28.96 in980.7 mb - 0.00 in0.0 mm 0.11 in2.8 mm
09:00 PM 29.6°F-1.3°C 24.8°F-4.0°C 82% Calm Calm -- 28.96 in980.7 mb - 0.00 in0.0 mm 0.11 in2.8 mm
09:05 PM 29.7°F-1.3°C 24.9°F-3.9°C 82% Calm Calm -- 28.96 in980.7 mb - 0.00 in0.0 mm 0.11 in2.8 mm
09:10 PM 29.9°F-1.2°C 25.1°F-3.8°C 82% Calm Calm -- 28.96 in980.7 mb - 0.00 in0.0 mm 0.11 in2.8 mm
09:15 PM 30.2°F-1.0°C 25.6°F-3.6°C 83% Calm Calm -- 28.96 in980.7 mb - 0.00 in0.0 mm 0.11 in2.8 mm
09:20 PM 30.5°F-0.8°C 25.7°F-3.5°C 82% Calm Calm -- 28.97 in981.0 mb - 0.00 in0.0 mm 0.11 in2.8 mm
09:25 PM 30.6°F-0.8°C 25.8°F-3.4°C 82% 1.2 mph W1.9 kmh W 3.5 mph5.6 kmh 28.97 in981.0 mb - 0.00 in0.0 mm 0.11 in2.8 mm
09:30 PM 30.7°F-0.7°C 25.9°F-3.4°C 82% 2.3 mph W3.7 kmh W 3.5 mph5.6 kmh 28.97 in981.0 mb - 0.00 in0.0 mm 0.11 in2.8 mm
09:35 PM 30.8°F-0.7°C 26.2°F-3.2°C 83% 1.2 mph WSW1.9 kmh WSW 2.3 mph3.7 kmh 28.97 in981.0 mb - 0.00 in0.0 mm 0.11 in2.8 mm
09:40 PM 30.9°F-0.6°C 26.3°F-3.2°C 83% Calm Calm -- 28.97 in981.0 mb - 0.00 in0.0 mm 0.11 in2.8 mm
09:45 PM 31.0°F-0.6°C 26.4°F-3.1°C 83% Calm Calm -- 28.97 in981.0 mb - 0.00 in0.0 mm 0.11 in2.8 mm
09:50 PM 31.1°F-0.5°C 26.5°F-3.1°C 83% Calm Calm -- 28.97 in981.0 mb - 0.00 in0.0 mm 0.11 in2.8 mm
09:55 PM 31.1°F-0.5°C 26.5°F-3.1°C 83% Calm Calm -- 28.98 in981.4 mb - 0.00 in0.0 mm 0.11 in2.8 mm
10:00 PM 31.1°F-0.5°C 26.5°F-3.1°C 83% Calm Calm -- 28.98 in981.4 mb - 0.00 in0.0 mm 0.11 in2.8 mm
10:05 PM 31.2°F-0.4°C 26.6°F-3.0°C 83% Calm Calm -- 28.97 in981.0 mb - 0.00 in0.0 mm 0.11 in2.8 mm
10:10 PM 31.2°F-0.4°C 26.6°F-3.0°C 83% Calm Calm -- 28.97 in981.0 mb - 0.00 in0.0 mm 0.11 in2.8 mm
10:15 PM 31.1°F-0.5°C 26.6°F-3.0°C 83% Calm Calm -- 28.98 in981.4 mb - 0.00 in0.0 mm 0.11 in2.8 mm
10:20 PM 31.1°F-0.5°C 26.5°F-3.1°C 83% Calm Calm -- 28.98 in981.4 mb - 0.00 in0.0 mm 0.11 in2.8 mm
10:25 PM 31.1°F-0.5°C 26.5°F-3.1°C 83% Calm Calm -- 28.98 in981.4 mb - 0.00 in0.0 mm 0.11 in2.8 mm
10:30 PM 31.0°F-0.6°C 26.5°F-3.1°C 83% Calm Calm -- 28.98 in981.4 mb - 0.00 in0.0 mm 0.11 in2.8 mm
10:35 PM 31.0°F-0.6°C 26.5°F-3.1°C 83% Calm Calm -- 28.98 in981.4 mb - 0.00 in0.0 mm 0.11 in2.8 mm
10:40 PM 31.0°F-0.6°C 26.4°F-3.1°C 83% Calm Calm -- 28.99 in981.7 mb - 0.00 in0.0 mm 0.11 in2.8 mm
10:45 PM 31.0°F-0.6°C 26.4°F-3.1°C 83% Calm Calm -- 28.99 in981.7 mb - 0.00 in0.0 mm 0.11 in2.8 mm
10:50 PM 30.8°F-0.7°C 26.2°F-3.2°C 83% Calm Calm -- 28.99 in981.7 mb - 0.00 in0.0 mm 0.11 in2.8 mm
10:55 PM 30.6°F-0.8°C 26.1°F-3.3°C 83% Calm Calm -- 28.99 in981.7 mb - 0.00 in0.0 mm 0.11 in2.8 mm
11:00 PM 30.5°F-0.8°C 26.0°F-3.3°C 83% Calm Calm -- 28.99 in981.7 mb - 0.00 in0.0 mm 0.11 in2.8 mm
11:05 PM 30.6°F-0.8°C 26.1°F-3.3°C 83% Calm Calm -- 29.00 in982.1 mb - 0.00 in0.0 mm 0.11 in2.8 mm
11:10 PM 30.7°F-0.7°C 26.1°F-3.3°C 83% Calm Calm -- 29.00 in982.1 mb - 0.00 in0.0 mm 0.11 in2.8 mm
11:15 PM 30.9°F-0.6°C 26.3°F-3.2°C 83% Calm Calm -- 28.99 in981.7 mb - 0.00 in0.0 mm 0.11 in2.8 mm
11:20 PM 31.0°F-0.6°C 26.4°F-3.1°C 83% Calm Calm -- 29.00 in982.1 mb - 0.00 in0.0 mm 0.11 in2.8 mm
11:25 PM 31.0°F-0.6°C 26.4°F-3.1°C 83% Calm Calm -- 29.00 in982.1 mb - 0.00 in0.0 mm 0.11 in2.8 mm
11:30 PM 31.0°F-0.6°C 26.4°F-3.1°C 83% Calm Calm -- 29.00 in982.1 mb - 0.00 in0.0 mm 0.11 in2.8 mm
11:35 PM 31.0°F-0.6°C 26.4°F-3.1°C 83% Calm Calm -- 29.01 in982.4 mb - 0.00 in0.0 mm 0.11 in2.8 mm
11:40 PM 30.9°F-0.6°C 26.4°F-3.1°C 83% Calm Calm -- 29.01 in982.4 mb - 0.00 in0.0 mm 0.11 in2.8 mm
11:45 PM 30.9°F-0.6°C 26.3°F-3.2°C 83% Calm Calm -- 29.00 in982.1 mb - 0.00 in0.0 mm 0.11 in2.8 mm
11:50 PM 30.8°F-0.7°C 26.3°F-3.2°C 83% Calm Calm -- 29.00 in982.1 mb - 0.00 in0.0 mm 0.11 in2.8 mm
11:55 PM 30.8°F-0.7°C 26.3°F-3.2°C 83% Calm Calm -- 29.01 in982.4 mb - 0.00 in0.0 mm 0.11 in2.8 mm